sensor_id;sensor_type;location;lat;lon;timestamp;P1;durP1;ratioP1;P2;durP2;ratioP2
63008;SDS011;49099;28.428;-16.488;2023-08-20T00:01:38;35.85;;;5.85;;
63008;SDS011;49099;28.428;-16.488;2023-08-20T00:04:26;43.95;;;7.07;;
63008;SDS011;49099;28.428;-16.488;2023-08-20T00:07:15;39.47;;;7.07;;
63008;SDS011;49099;28.428;-16.488;2023-08-20T00:10:05;30.65;;;5.72;;
63008;SDS011;49099;28.428;-16.488;2023-08-20T00:12:53;39.10;;;7.00;;
63008;SDS011;49099;28.428;-16.488;2023-08-20T00:15:41;26.27;;;5.50;;
63008;SDS011;49099;28.428;-16.488;2023-08-20T00:18:29;36.65;;;6.55;;
63008;SDS011;49099;28.428;-16.488;2023-08-20T00:21:17;25.73;;;5.70;;
63008;SDS011;49099;28.428;-16.488;2023-08-20T00:24:05;46.30;;;7.45;;
63008;SDS011;49099;28.428;-16.488;2023-08-20T00:26:53;36.28;;;7.28;;
63008;SDS011;49099;28.428;-16.488;2023-08-20T00:29:40;44.03;;;6.85;;
63008;SDS011;49099;28.428;-16.488;2023-08-20T00:32:28;42.40;;;6.68;;
63008;SDS011;49099;28.428;-16.488;2023-08-20T00:35:15;41.35;;;7.32;;
63008;SDS011;49099;28.428;-16.488;2023-08-20T00:38:03;36.53;;;6.63;;
63008;SDS011;49099;28.428;-16.488;2023-08-20T00:40:50;43.40;;;7.25;;
63008;SDS011;49099;28.428;-16.488;2023-08-20T00:43:38;35.30;;;6.28;;
63008;SDS011;49099;28.428;-16.488;2023-08-20T00:46:25;42.97;;;6.70;;
63008;SDS011;49099;28.428;-16.488;2023-08-20T00:49:13;30.40;;;5.75;;
63008;SDS011;49099;28.428;-16.488;2023-08-20T00:52:01;33.17;;;6.85;;
63008;SDS011;49099;28.428;-16.488;2023-08-20T00:54:50;44.05;;;6.57;;
63008;SDS011;49099;28.428;-16.488;2023-08-20T00:57:38;46.83;;;6.93;;
63008;SDS011;49099;28.428;-16.488;2023-08-20T01:00:26;34.42;;;6.25;;
63008;SDS011;49099;28.428;-16.488;2023-08-20T01:03:13;34.95;;;6.55;;
63008;SDS011;49099;28.428;-16.488;2023-08-20T01:06:06;49.97;;;7.63;;
63008;SDS011;49099;28.428;-16.488;2023-08-20T01:12:36;56.47;;;8.60;;
63008;SDS011;49099;28.428;-16.488;2023-08-20T01:15:25;44.03;;;7.55;;
63008;SDS011;49099;28.428;-16.488;2023-08-20T01:18:13;52.10;;;7.38;;
63008;SDS011;49099;28.428;-16.488;2023-08-20T01:21:06;56.70;;;7.80;;
63008;SDS011;49099;28.428;-16.488;2023-08-20T01:24:31;33.10;;;7.05;;
63008;SDS011;49099;28.428;-16.488;2023-08-20T01:30:32;33.20;;;6.57;;
63008;SDS011;49099;28.428;-16.488;2023-08-20T01:33:21;42.65;;;7.75;;
63008;SDS011;49099;28.428;-16.488;2023-08-20T01:36:09;39.45;;;7.97;;
63008;SDS011;49099;28.428;-16.488;2023-08-20T01:38:57;51.92;;;7.88;;
63008;SDS011;49099;28.428;-16.488;2023-08-20T01:41:44;43.72;;;7.80;;
63008;SDS011;49099;28.428;-16.488;2023-08-20T01:44:32;35.40;;;6.45;;
63008;SDS011;49099;28.428;-16.488;2023-08-20T01:47:19;37.55;;;6.63;;
63008;SDS011;49099;28.428;-16.488;2023-08-20T01:50:07;32.40;;;6.45;;
63008;SDS011;49099;28.428;-16.488;2023-08-20T01:52:55;22.60;;;5.13;;
63008;SDS011;49099;28.428;-16.488;2023-08-20T01:55:42;30.58;;;6.22;;
63008;SDS011;49099;28.428;-16.488;2023-08-20T01:58:29;31.42;;;6.03;;
63008;SDS011;49099;28.428;-16.488;2023-08-20T02:01:19;34.97;;;6.68;;
63008;SDS011;49099;28.428;-16.488;2023-08-20T02:04:07;34.60;;;6.90;;
63008;SDS011;49099;28.428;-16.488;2023-08-20T02:06:54;29.35;;;5.85;;
63008;SDS011;49099;28.428;-16.488;2023-08-20T02:09:42;30.00;;;5.90;;
63008;SDS011;49099;28.428;-16.488;2023-08-20T02:12:29;21.52;;;5.07;;
63008;SDS011;49099;28.428;-16.488;2023-08-20T02:15:17;27.30;;;6.00;;
63008;SDS011;49099;28.428;-16.488;2023-08-20T02:18:04;22.80;;;5.28;;
63008;SDS011;49099;28.428;-16.488;2023-08-20T02:20:52;22.17;;;5.75;;
63008;SDS011;49099;28.428;-16.488;2023-08-20T02:23:39;22.88;;;5.07;;
63008;SDS011;49099;28.428;-16.488;2023-08-20T02:26:27;24.52;;;5.93;;
63008;SDS011;49099;28.428;-16.488;2023-08-20T02:29:14;41.28;;;8.43;;
63008;SDS011;49099;28.428;-16.488;2023-08-20T02:32:02;38.70;;;8.57;;
63008;SDS011;49099;28.428;-16.488;2023-08-20T02:34:50;31.23;;;8.10;;
63008;SDS011;49099;28.428;-16.488;2023-08-20T02:37:38;27.40;;;7.10;;
63008;SDS011;49099;28.428;-16.488;2023-08-20T02:40:28;24.15;;;6.65;;
63008;SDS011;49099;28.428;-16.488;2023-08-20T02:43:16;36.38;;;9.13;;
63008;SDS011;49099;28.428;-16.488;2023-08-20T02:46:03;26.83;;;7.82;;
63008;SDS011;49099;28.428;-16.488;2023-08-20T02:48:51;49.40;;;16.13;;
63008;SDS011;49099;28.428;-16.488;2023-08-20T02:51:38;42.20;;;17.02;;
63008;SDS011;49099;28.428;-16.488;2023-08-20T02:54:26;44.70;;;15.68;;
63008;SDS011;49099;28.428;-16.488;2023-08-20T02:57:13;46.75;;;17.65;;
63008;SDS011;49099;28.428;-16.488;2023-08-20T03:00:01;50.10;;;18.17;;
63008;SDS011;49099;28.428;-16.488;2023-08-20T03:02:49;32.17;;;14.32;;
63008;SDS011;49099;28.428;-16.488;2023-08-20T03:05:37;41.63;;;15.75;;
63008;SDS011;49099;28.428;-16.488;2023-08-20T03:08:25;58.67;;;22.20;;
63008;SDS011;49099;28.428;-16.488;2023-08-20T03:11:12;49.75;;;20.23;;
63008;SDS011;49099;28.428;-16.488;2023-08-20T03:14:00;46.35;;;20.73;;
63008;SDS011;49099;28.428;-16.488;2023-08-20T03:16:48;64.30;;;29.17;;
63008;SDS011;49099;28.428;-16.488;2023-08-20T03:19:35;68.38;;;30.55;;
63008;SDS011;49099;28.428;-16.488;2023-08-20T03:22:23;78.72;;;35.10;;
63008;SDS011;49099;28.428;-16.488;2023-08-20T03:25:11;72.13;;;33.25;;
63008;SDS011;49099;28.428;-16.488;2023-08-20T03:27:59;90.45;;;45.08;;
63008;SDS011;49099;28.428;-16.488;2023-08-20T03:30:46;93.55;;;41.63;;
63008;SDS011;49099;28.428;-16.488;2023-08-20T03:33:34;68.15;;;28.98;;
63008;SDS011;49099;28.428;-16.488;2023-08-20T03:36:21;49.22;;;22.27;;
63008;SDS011;49099;28.428;-16.488;2023-08-20T03:39:09;45.58;;;20.70;;
63008;SDS011;49099;28.428;-16.488;2023-08-20T03:41:57;58.45;;;26.00;;
63008;SDS011;49099;28.428;-16.488;2023-08-20T03:44:44;59.65;;;24.70;;
63008;SDS011;49099;28.428;-16.488;2023-08-20T03:47:32;46.20;;;14.68;;
63008;SDS011;49099;28.428;-16.488;2023-08-20T03:50:20;47.88;;;17.90;;
63008;SDS011;49099;28.428;-16.488;2023-08-20T03:53:07;47.90;;;18.10;;
63008;SDS011;49099;28.428;-16.488;2023-08-20T03:55:55;42.47;;;14.57;;
63008;SDS011;49099;28.428;-16.488;2023-08-20T03:58:43;42.30;;;16.48;;
63008;SDS011;49099;28.428;-16.488;2023-08-20T04:01:31;53.65;;;19.63;;
63008;SDS011;49099;28.428;-16.488;2023-08-20T04:04:19;68.30;;;32.13;;
63008;SDS011;49099;28.428;-16.488;2023-08-20T04:07:08;32.15;;;9.52;;
63008;SDS011;49099;28.428;-16.488;2023-08-20T04:09:56;33.85;;;11.48;;
63008;SDS011;49099;28.428;-16.488;2023-08-20T04:12:43;33.88;;;10.45;;
63008;SDS011;49099;28.428;-16.488;2023-08-20T04:15:31;30.55;;;10.50;;
63008;SDS011;49099;28.428;-16.488;2023-08-20T04:18:18;35.80;;;12.98;;
63008;SDS011;49099;28.428;-16.488;2023-08-20T04:21:06;36.10;;;12.57;;
63008;SDS011;49099;28.428;-16.488;2023-08-20T04:23:54;38.10;;;11.65;;
63008;SDS011;49099;28.428;-16.488;2023-08-20T04:26:41;47.28;;;11.27;;
63008;SDS011;49099;28.428;-16.488;2023-08-20T04:29:30;51.78;;;10.63;;
63008;SDS011;49099;28.428;-16.488;2023-08-20T04:32:18;36.08;;;9.95;;
63008;SDS011;49099;28.428;-16.488;2023-08-20T04:35:08;53.70;;;16.63;;
63008;SDS011;49099;28.428;-16.488;2023-08-20T04:37:56;33.90;;;8.25;;
63008;SDS011;49099;28.428;-16.488;2023-08-20T04:40:47;34.03;;;9.60;;
63008;SDS011;49099;28.428;-16.488;2023-08-20T04:43:35;36.72;;;10.30;;
63008;SDS011;49099;28.428;-16.488;2023-08-20T04:46:23;37.65;;;12.18;;
63008;SDS011;49099;28.428;-16.488;2023-08-20T04:49:10;90.65;;;42.17;;
63008;SDS011;49099;28.428;-16.488;2023-08-20T04:51:58;39.65;;;11.75;;
63008;SDS011;49099;28.428;-16.488;2023-08-20T04:54:46;44.55;;;15.95;;
63008;SDS011;49099;28.428;-16.488;2023-08-20T04:57:34;43.15;;;17.85;;
63008;SDS011;49099;28.428;-16.488;2023-08-20T05:00:22;51.58;;;18.05;;
63008;SDS011;49099;28.428;-16.488;2023-08-20T05:03:10;68.57;;;31.05;;
63008;SDS011;49099;28.428;-16.488;2023-08-20T05:05:57;62.83;;;26.02;;
63008;SDS011;49099;28.428;-16.488;2023-08-20T05:08:45;48.20;;;17.60;;
63008;SDS011;49099;28.428;-16.488;2023-08-20T05:11:32;35.33;;;10.68;;
63008;SDS011;49099;28.428;-16.488;2023-08-20T05:14:20;36.08;;;13.13;;
63008;SDS011;49099;28.428;-16.488;2023-08-20T05:17:08;37.58;;;12.65;;
63008;SDS011;49099;28.428;-16.488;2023-08-20T05:19:55;41.75;;;14.98;;
63008;SDS011;49099;28.428;-16.488;2023-08-20T05:22:43;57.22;;;19.08;;
63008;SDS011;49099;28.428;-16.488;2023-08-20T05:25:30;45.58;;;10.70;;
63008;SDS011;49099;28.428;-16.488;2023-08-20T05:28:18;43.53;;;12.13;;
63008;SDS011;49099;28.428;-16.488;2023-08-20T05:31:05;50.70;;;9.52;;
63008;SDS011;49099;28.428;-16.488;2023-08-20T05:33:53;43.47;;;7.47;;
63008;SDS011;49099;28.428;-16.488;2023-08-20T05:36:40;50.70;;;8.35;;
63008;SDS011;49099;28.428;-16.488;2023-08-20T05:39:42;34.42;;;6.53;;
63008;SDS011;49099;28.428;-16.488;2023-08-20T05:42:30;35.95;;;7.43;;
63008;SDS011;49099;28.428;-16.488;2023-08-20T05:45:18;37.30;;;7.32;;
63008;SDS011;49099;28.428;-16.488;2023-08-20T05:48:06;38.88;;;6.57;;
63008;SDS011;49099;28.428;-16.488;2023-08-20T05:50:53;32.90;;;7.38;;
63008;SDS011;49099;28.428;-16.488;2023-08-20T05:53:41;42.47;;;8.70;;
63008;SDS011;49099;28.428;-16.488;2023-08-20T05:56:29;33.15;;;8.20;;
63008;SDS011;49099;28.428;-16.488;2023-08-20T05:59:16;29.58;;;7.53;;
63008;SDS011;49099;28.428;-16.488;2023-08-20T06:02:04;41.72;;;9.40;;
63008;SDS011;49099;28.428;-16.488;2023-08-20T06:04:51;44.72;;;8.85;;
63008;SDS011;49099;28.428;-16.488;2023-08-20T06:07:39;42.08;;;7.80;;
63008;SDS011;49099;28.428;-16.488;2023-08-20T06:10:27;32.65;;;8.25;;
63008;SDS011;49099;28.428;-16.488;2023-08-20T06:13:15;33.58;;;8.10;;
63008;SDS011;49099;28.428;-16.488;2023-08-20T06:16:02;31.35;;;7.82;;
63008;SDS011;49099;28.428;-16.488;2023-08-20T06:18:50;35.60;;;8.88;;
63008;SDS011;49099;28.428;-16.488;2023-08-20T06:21:41;40.50;;;8.60;;
63008;SDS011;49099;28.428;-16.488;2023-08-20T06:24:28;36.10;;;7.78;;
63008;SDS011;49099;28.428;-16.488;2023-08-20T06:27:16;43.03;;;9.02;;
63008;SDS011;49099;28.428;-16.488;2023-08-20T06:30:03;37.67;;;8.68;;
63008;SDS011;49099;28.428;-16.488;2023-08-20T06:32:52;32.70;;;8.02;;
63008;SDS011;49099;28.428;-16.488;2023-08-20T06:35:40;34.17;;;8.13;;
63008;SDS011;49099;28.428;-16.488;2023-08-20T06:38:29;35.53;;;9.23;;
63008;SDS011;49099;28.428;-16.488;2023-08-20T06:41:17;69.30;;;10.85;;
63008;SDS011;49099;28.428;-16.488;2023-08-20T06:44:05;82.00;;;11.40;;
63008;SDS011;49099;28.428;-16.488;2023-08-20T06:46:52;78.63;;;12.25;;
63008;SDS011;49099;28.428;-16.488;2023-08-20T06:49:40;61.78;;;10.00;;
63008;SDS011;49099;28.428;-16.488;2023-08-20T06:52:28;49.63;;;9.90;;
63008;SDS011;49099;28.428;-16.488;2023-08-20T06:55:15;46.25;;;9.00;;
63008;SDS011;49099;28.428;-16.488;2023-08-20T06:58:03;47.38;;;9.07;;
63008;SDS011;49099;28.428;-16.488;2023-08-20T07:00:51;67.72;;;10.50;;
63008;SDS011;49099;28.428;-16.488;2023-08-20T07:03:39;42.75;;;8.75;;
63008;SDS011;49099;28.428;-16.488;2023-08-20T07:06:28;49.75;;;8.45;;
63008;SDS011;49099;28.428;-16.488;2023-08-20T07:09:16;56.50;;;9.02;;
63008;SDS011;49099;28.428;-16.488;2023-08-20T07:12:03;59.25;;;9.82;;
63008;SDS011;49099;28.428;-16.488;2023-08-20T07:14:51;46.22;;;8.07;;
63008;SDS011;49099;28.428;-16.488;2023-08-20T07:17:38;44.63;;;8.27;;
63008;SDS011;49099;28.428;-16.488;2023-08-20T07:20:27;49.15;;;8.20;;
63008;SDS011;49099;28.428;-16.488;2023-08-20T07:23:14;50.90;;;8.75;;
63008;SDS011;49099;28.428;-16.488;2023-08-20T07:26:08;48.67;;;7.40;;
63008;SDS011;49099;28.428;-16.488;2023-08-20T07:28:57;29.52;;;6.22;;
63008;SDS011;49099;28.428;-16.488;2023-08-20T07:31:45;46.55;;;8.32;;
63008;SDS011;49099;28.428;-16.488;2023-08-20T07:34:33;37.60;;;7.53;;
63008;SDS011;49099;28.428;-16.488;2023-08-20T07:37:21;35.92;;;6.63;;
63008;SDS011;49099;28.428;-16.488;2023-08-20T07:40:08;41.53;;;6.63;;
63008;SDS011;49099;28.428;-16.488;2023-08-20T07:43:01;29.00;;;6.18;;
63008;SDS011;49099;28.428;-16.488;2023-08-20T07:45:49;36.10;;;7.82;;
63008;SDS011;49099;28.428;-16.488;2023-08-20T07:48:36;43.33;;;9.00;;
63008;SDS011;49099;28.428;-16.488;2023-08-20T07:51:24;39.78;;;8.82;;
63008;SDS011;49099;28.428;-16.488;2023-08-20T07:54:11;38.03;;;8.55;;
63008;SDS011;49099;28.428;-16.488;2023-08-20T07:56:59;32.97;;;8.30;;
63008;SDS011;49099;28.428;-16.488;2023-08-20T07:59:46;40.03;;;7.93;;
63008;SDS011;49099;28.428;-16.488;2023-08-20T08:02:34;36.63;;;8.50;;
63008;SDS011;49099;28.428;-16.488;2023-08-20T08:05:21;52.33;;;9.23;;
63008;SDS011;49099;28.428;-16.488;2023-08-20T08:08:09;50.95;;;10.95;;
63008;SDS011;49099;28.428;-16.488;2023-08-20T08:10:57;78.43;;;12.32;;
63008;SDS011;49099;28.428;-16.488;2023-08-20T08:13:44;61.40;;;10.57;;
63008;SDS011;49099;28.428;-16.488;2023-08-20T08:16:32;58.22;;;9.45;;
63008;SDS011;49099;28.428;-16.488;2023-08-20T08:19:19;51.30;;;9.02;;
63008;SDS011;49099;28.428;-16.488;2023-08-20T08:22:07;57.70;;;10.43;;
63008;SDS011;49099;28.428;-16.488;2023-08-20T08:24:54;51.25;;;9.35;;
63008;SDS011;49099;28.428;-16.488;2023-08-20T08:27:42;48.03;;;8.75;;
63008;SDS011;49099;28.428;-16.488;2023-08-20T08:30:47;46.10;;;9.27;;
63008;SDS011;49099;28.428;-16.488;2023-08-20T08:33:35;53.80;;;9.52;;
63008;SDS011;49099;28.428;-16.488;2023-08-20T08:36:22;49.75;;;9.95;;
63008;SDS011;49099;28.428;-16.488;2023-08-20T08:39:13;51.58;;;10.10;;
63008;SDS011;49099;28.428;-16.488;2023-08-20T08:42:02;58.88;;;9.88;;
63008;SDS011;49099;28.428;-16.488;2023-08-20T08:44:51;57.08;;;9.75;;
63008;SDS011;49099;28.428;-16.488;2023-08-20T08:47:39;50.15;;;8.73;;
63008;SDS011;49099;28.428;-16.488;2023-08-20T08:50:27;57.13;;;9.25;;
63008;SDS011;49099;28.428;-16.488;2023-08-20T08:53:14;47.67;;;8.98;;
63008;SDS011;49099;28.428;-16.488;2023-08-20T08:56:02;35.50;;;7.65;;
63008;SDS011;49099;28.428;-16.488;2023-08-20T08:58:50;34.28;;;7.60;;
63008;SDS011;49099;28.428;-16.488;2023-08-20T09:01:38;40.40;;;8.95;;
63008;SDS011;49099;28.428;-16.488;2023-08-20T09:04:27;35.60;;;8.50;;
63008;SDS011;49099;28.428;-16.488;2023-08-20T09:07:15;32.55;;;8.40;;
63008;SDS011;49099;28.428;-16.488;2023-08-20T09:10:02;51.90;;;9.88;;
63008;SDS011;49099;28.428;-16.488;2023-08-20T09:12:50;44.25;;;8.93;;
63008;SDS011;49099;28.428;-16.488;2023-08-20T09:15:38;38.42;;;8.45;;
63008;SDS011;49099;28.428;-16.488;2023-08-20T09:18:26;31.70;;;8.52;;
63008;SDS011;49099;28.428;-16.488;2023-08-20T09:21:13;33.65;;;9.70;;
63008;SDS011;49099;28.428;-16.488;2023-08-20T09:24:01;39.05;;;11.10;;
63008;SDS011;49099;28.428;-16.488;2023-08-20T09:26:49;41.55;;;9.82;;
63008;SDS011;49099;28.428;-16.488;2023-08-20T09:33:12;26.40;;;8.00;;
63008;SDS011;49099;28.428;-16.488;2023-08-20T09:36:03;40.17;;;10.02;;
63008;SDS011;49099;28.428;-16.488;2023-08-20T09:38:51;59.90;;;8.85;;
63008;SDS011;49099;28.428;-16.488;2023-08-20T09:41:39;44.67;;;7.43;;
63008;SDS011;49099;28.428;-16.488;2023-08-20T09:44:27;37.53;;;7.18;;
63008;SDS011;49099;28.428;-16.488;2023-08-20T09:47:22;43.42;;;7.10;;
63008;SDS011;49099;28.428;-16.488;2023-08-20T09:50:17;48.72;;;8.27;;
63008;SDS011;49099;28.428;-16.488;2023-08-20T09:53:15;40.83;;;7.50;;
63008;SDS011;49099;28.428;-16.488;2023-08-20T09:56:30;47.70;;;7.82;;
63008;SDS011;49099;28.428;-16.488;2023-08-20T09:59:18;44.97;;;8.75;;
63008;SDS011;49099;28.428;-16.488;2023-08-20T10:02:05;52.03;;;8.35;;
63008;SDS011;49099;28.428;-16.488;2023-08-20T10:04:58;52.65;;;8.07;;
63008;SDS011;49099;28.428;-16.488;2023-08-20T10:07:49;44.63;;;7.93;;
63008;SDS011;49099;28.428;-16.488;2023-08-20T10:10:37;47.33;;;8.43;;
63008;SDS011;49099;28.428;-16.488;2023-08-20T10:13:25;42.92;;;7.63;;
63008;SDS011;49099;28.428;-16.488;2023-08-20T10:16:12;42.65;;;7.53;;
63008;SDS011;49099;28.428;-16.488;2023-08-20T10:19:05;34.42;;;7.03;;
63008;SDS011;49099;28.428;-16.488;2023-08-20T10:21:53;30.60;;;7.13;;
63008;SDS011;49099;28.428;-16.488;2023-08-20T10:24:44;46.15;;;8.30;;
63008;SDS011;49099;28.428;-16.488;2023-08-20T10:27:39;48.25;;;8.88;;
63008;SDS011;49099;28.428;-16.488;2023-08-20T10:30:29;40.50;;;8.23;;
63008;SDS011;49099;28.428;-16.488;2023-08-20T10:33:17;39.67;;;8.02;;
63008;SDS011;49099;28.428;-16.488;2023-08-20T10:36:15;39.83;;;7.95;;
63008;SDS011;49099;28.428;-16.488;2023-08-20T10:39:19;29.98;;;7.05;;
63008;SDS011;49099;28.428;-16.488;2023-08-20T10:45:07;34.95;;;8.13;;
63008;SDS011;49099;28.428;-16.488;2023-08-20T10:47:56;56.22;;;9.65;;
63008;SDS011;49099;28.428;-16.488;2023-08-20T10:50:44;41.92;;;7.90;;
63008;SDS011;49099;28.428;-16.488;2023-08-20T10:53:32;50.00;;;8.80;;
63008;SDS011;49099;28.428;-16.488;2023-08-20T10:56:21;53.30;;;9.95;;
63008;SDS011;49099;28.428;-16.488;2023-08-20T10:59:30;47.15;;;9.65;;
63008;SDS011;49099;28.428;-16.488;2023-08-20T11:02:17;38.15;;;8.35;;
63008;SDS011;49099;28.428;-16.488;2023-08-20T11:05:15;51.53;;;9.30;;
63008;SDS011;49099;28.428;-16.488;2023-08-20T11:08:08;39.53;;;8.32;;
63008;SDS011;49099;28.428;-16.488;2023-08-20T11:10:56;49.83;;;8.68;;
63008;SDS011;49099;28.428;-16.488;2023-08-20T11:13:44;49.40;;;8.45;;
63008;SDS011;49099;28.428;-16.488;2023-08-20T11:16:31;55.88;;;9.45;;
63008;SDS011;49099;28.428;-16.488;2023-08-20T11:19:20;53.75;;;9.45;;
63008;SDS011;49099;28.428;-16.488;2023-08-20T11:22:09;49.95;;;9.43;;
63008;SDS011;49099;28.428;-16.488;2023-08-20T11:24:57;49.40;;;8.82;;
63008;SDS011;49099;28.428;-16.488;2023-08-20T11:27:44;53.28;;;10.00;;
63008;SDS011;49099;28.428;-16.488;2023-08-20T11:30:32;43.88;;;8.68;;
63008;SDS011;49099;28.428;-16.488;2023-08-20T11:33:20;41.92;;;8.13;;
63008;SDS011;49099;28.428;-16.488;2023-08-20T11:36:08;43.75;;;8.25;;
63008;SDS011;49099;28.428;-16.488;2023-08-20T11:38:56;42.90;;;8.20;;
63008;SDS011;49099;28.428;-16.488;2023-08-20T11:41:43;41.85;;;7.97;;
63008;SDS011;49099;28.428;-16.488;2023-08-20T11:44:41;49.75;;;8.35;;
63008;SDS011;49099;28.428;-16.488;2023-08-20T11:47:38;53.92;;;8.60;;
63008;SDS011;49099;28.428;-16.488;2023-08-20T11:50:28;39.03;;;7.40;;
63008;SDS011;49099;28.428;-16.488;2023-08-20T11:53:20;42.45;;;7.10;;
63008;SDS011;49099;28.428;-16.488;2023-08-20T11:56:12;34.75;;;6.95;;
63008;SDS011;49099;28.428;-16.488;2023-08-20T11:59:01;44.15;;;7.22;;
63008;SDS011;49099;28.428;-16.488;2023-08-20T12:01:50;45.08;;;7.28;;
63008;SDS011;49099;28.428;-16.488;2023-08-20T12:04:38;38.28;;;6.65;;
63008;SDS011;49099;28.428;-16.488;2023-08-20T12:07:26;42.28;;;7.63;;
63008;SDS011;49099;28.428;-16.488;2023-08-20T12:10:20;34.15;;;6.53;;
63008;SDS011;49099;28.428;-16.488;2023-08-20T12:13:08;40.60;;;7.38;;
63008;SDS011;49099;28.428;-16.488;2023-08-20T12:15:56;36.00;;;7.32;;
63008;SDS011;49099;28.428;-16.488;2023-08-20T12:18:45;49.75;;;8.43;;
63008;SDS011;49099;28.428;-16.488;2023-08-20T12:21:33;36.67;;;7.30;;
63008;SDS011;49099;28.428;-16.488;2023-08-20T12:24:21;44.55;;;7.93;;
63008;SDS011;49099;28.428;-16.488;2023-08-20T12:27:09;34.85;;;7.60;;
63008;SDS011;49099;28.428;-16.488;2023-08-20T12:29:57;43.72;;;8.00;;
63008;SDS011;49099;28.428;-16.488;2023-08-20T12:32:44;40.92;;;7.57;;
63008;SDS011;49099;28.428;-16.488;2023-08-20T12:35:32;38.85;;;8.20;;
63008;SDS011;49099;28.428;-16.488;2023-08-20T12:38:19;34.33;;;6.95;;
63008;SDS011;49099;28.428;-16.488;2023-08-20T12:41:07;26.17;;;6.28;;
63008;SDS011;49099;28.428;-16.488;2023-08-20T12:43:54;30.02;;;5.97;;
63008;SDS011;49099;28.428;-16.488;2023-08-20T12:46:42;30.65;;;6.13;;
63008;SDS011;49099;28.428;-16.488;2023-08-20T12:49:29;33.85;;;6.47;;
63008;SDS011;49099;28.428;-16.488;2023-08-20T12:52:17;26.92;;;5.78;;
63008;SDS011;49099;28.428;-16.488;2023-08-20T12:55:04;34.72;;;6.30;;
63008;SDS011;49099;28.428;-16.488;2023-08-20T12:57:53;28.92;;;6.10;;
63008;SDS011;49099;28.428;-16.488;2023-08-20T13:00:42;28.35;;;6.45;;
63008;SDS011;49099;28.428;-16.488;2023-08-20T13:03:30;22.90;;;5.13;;
63008;SDS011;49099;28.428;-16.488;2023-08-20T13:06:19;23.92;;;5.82;;
63008;SDS011;49099;28.428;-16.488;2023-08-20T13:09:07;29.63;;;6.03;;
63008;SDS011;49099;28.428;-16.488;2023-08-20T13:11:56;25.23;;;5.30;;
63008;SDS011;49099;28.428;-16.488;2023-08-20T13:14:47;31.70;;;6.20;;
63008;SDS011;49099;28.428;-16.488;2023-08-20T13:17:36;31.30;;;7.10;;
63008;SDS011;49099;28.428;-16.488;2023-08-20T13:20:25;30.13;;;6.28;;
63008;SDS011;49099;28.428;-16.488;2023-08-20T13:23:14;28.42;;;5.60;;
63008;SDS011;49099;28.428;-16.488;2023-08-20T13:26:01;31.75;;;6.68;;
63008;SDS011;49099;28.428;-16.488;2023-08-20T13:28:50;27.15;;;5.60;;
63008;SDS011;49099;28.428;-16.488;2023-08-20T13:31:37;27.80;;;6.13;;
63008;SDS011;49099;28.428;-16.488;2023-08-20T13:34:25;30.17;;;5.93;;
63008;SDS011;49099;28.428;-16.488;2023-08-20T13:37:12;28.30;;;6.80;;
63008;SDS011;49099;28.428;-16.488;2023-08-20T13:40:00;24.67;;;5.53;;
63008;SDS011;49099;28.428;-16.488;2023-08-20T13:42:48;31.65;;;5.68;;
63008;SDS011;49099;28.428;-16.488;2023-08-20T13:45:35;26.60;;;5.85;;
63008;SDS011;49099;28.428;-16.488;2023-08-20T13:48:23;25.55;;;5.40;;
63008;SDS011;49099;28.428;-16.488;2023-08-20T13:51:10;32.08;;;6.25;;
63008;SDS011;49099;28.428;-16.488;2023-08-20T13:53:58;25.45;;;5.40;;
63008;SDS011;49099;28.428;-16.488;2023-08-20T13:56:45;33.95;;;6.13;;
63008;SDS011;49099;28.428;-16.488;2023-08-20T13:59:33;33.28;;;6.05;;
63008;SDS011;49099;28.428;-16.488;2023-08-20T14:02:20;25.67;;;6.20;;
63008;SDS011;49099;28.428;-16.488;2023-08-20T14:05:08;27.40;;;5.68;;
63008;SDS011;49099;28.428;-16.488;2023-08-20T14:07:56;31.33;;;6.35;;
63008;SDS011;49099;28.428;-16.488;2023-08-20T14:10:43;34.60;;;6.47;;
63008;SDS011;49099;28.428;-16.488;2023-08-20T14:13:31;37.42;;;6.47;;
63008;SDS011;49099;28.428;-16.488;2023-08-20T14:16:19;26.55;;;6.50;;
63008;SDS011;49099;28.428;-16.488;2023-08-20T14:19:06;31.17;;;6.07;;
63008;SDS011;49099;28.428;-16.488;2023-08-20T14:21:54;22.45;;;5.82;;
63008;SDS011;49099;28.428;-16.488;2023-08-20T14:24:41;29.38;;;5.65;;
63008;SDS011;49099;28.428;-16.488;2023-08-20T14:27:29;25.00;;;5.70;;
63008;SDS011;49099;28.428;-16.488;2023-08-20T14:30:16;27.70;;;5.85;;
63008;SDS011;49099;28.428;-16.488;2023-08-20T14:33:05;24.35;;;5.68;;
63008;SDS011;49099;28.428;-16.488;2023-08-20T14:35:53;30.08;;;5.63;;
63008;SDS011;49099;28.428;-16.488;2023-08-20T14:38:40;26.23;;;5.68;;
63008;SDS011;49099;28.428;-16.488;2023-08-20T14:41:28;22.02;;;5.68;;
63008;SDS011;49099;28.428;-16.488;2023-08-20T14:44:15;23.05;;;5.60;;
63008;SDS011;49099;28.428;-16.488;2023-08-20T14:47:02;33.65;;;7.00;;
63008;SDS011;49099;28.428;-16.488;2023-08-20T14:49:51;26.00;;;5.80;;
63008;SDS011;49099;28.428;-16.488;2023-08-20T14:52:39;29.55;;;6.00;;
63008;SDS011;49099;28.428;-16.488;2023-08-20T14:55:26;32.50;;;6.15;;
63008;SDS011;49099;28.428;-16.488;2023-08-20T14:58:14;31.88;;;6.15;;
63008;SDS011;49099;28.428;-16.488;2023-08-20T15:01:01;27.33;;;5.70;;
63008;SDS011;49099;28.428;-16.488;2023-08-20T15:03:50;23.35;;;5.50;;
63008;SDS011;49099;28.428;-16.488;2023-08-20T15:06:37;25.13;;;6.03;;
63008;SDS011;49099;28.428;-16.488;2023-08-20T15:09:25;25.65;;;5.70;;
63008;SDS011;49099;28.428;-16.488;2023-08-20T15:12:13;22.83;;;5.22;;
63008;SDS011;49099;28.428;-16.488;2023-08-20T15:15:00;29.80;;;5.45;;
63008;SDS011;49099;28.428;-16.488;2023-08-20T15:17:50;30.05;;;5.95;;
63008;SDS011;49099;28.428;-16.488;2023-08-20T15:20:38;29.10;;;5.70;;
63008;SDS011;49099;28.428;-16.488;2023-08-20T15:23:26;31.40;;;5.90;;
63008;SDS011;49099;28.428;-16.488;2023-08-20T15:26:15;20.40;;;5.07;;
63008;SDS011;49099;28.428;-16.488;2023-08-20T15:29:02;25.05;;;6.10;;
63008;SDS011;49099;28.428;-16.488;2023-08-20T15:31:50;25.38;;;5.53;;
63008;SDS011;49099;28.428;-16.488;2023-08-20T15:34:38;21.88;;;5.22;;
63008;SDS011;49099;28.428;-16.488;2023-08-20T15:37:26;29.58;;;6.45;;
63008;SDS011;49099;28.428;-16.488;2023-08-20T15:40:14;21.42;;;5.28;;
63008;SDS011;49099;28.428;-16.488;2023-08-20T15:43:01;26.75;;;6.10;;
63008;SDS011;49099;28.428;-16.488;2023-08-20T15:45:49;30.90;;;6.15;;
63008;SDS011;49099;28.428;-16.488;2023-08-20T15:48:36;25.42;;;6.38;;
63008;SDS011;49099;28.428;-16.488;2023-08-20T15:51:24;263.48;;;18.70;;
63008;SDS011;49099;28.428;-16.488;2023-08-20T15:54:12;37.17;;;6.72;;
63008;SDS011;49099;28.428;-16.488;2023-08-20T15:56:59;37.05;;;6.95;;
63008;SDS011;49099;28.428;-16.488;2023-08-20T15:59:47;49.33;;;7.30;;
63008;SDS011;49099;28.428;-16.488;2023-08-20T16:02:34;30.42;;;6.32;;
63008;SDS011;49099;28.428;-16.488;2023-08-20T16:05:22;34.47;;;6.97;;
63008;SDS011;49099;28.428;-16.488;2023-08-20T16:08:09;28.33;;;5.97;;
63008;SDS011;49099;28.428;-16.488;2023-08-20T16:10:57;32.70;;;6.10;;
63008;SDS011;49099;28.428;-16.488;2023-08-20T16:13:44;26.90;;;6.22;;
63008;SDS011;49099;28.428;-16.488;2023-08-20T16:16:35;26.67;;;5.55;;
63008;SDS011;49099;28.428;-16.488;2023-08-20T16:19:22;24.08;;;5.93;;
63008;SDS011;49099;28.428;-16.488;2023-08-20T16:22:10;25.60;;;6.32;;